Landes Station, West Virginia
Current Conditions -  °F | °C
As of 11:10 AM on Wednesday 26 Nov 2014 (Local Time) from KW99 Reporting Station
Moderate Snow Moderate Snow  
Wind Chill: 32°   Ceiling: 200
Heat Index: 32°   Visibility: 0.25mi
Dew Point: 32°   Wind: 0mph
Humidity: 99%   Direction: NA
Pressure: 30.07"   Gusts: NA
Location:  38.9337°N, 79.1435°W
Report Text: KW99 261610Z AUTO 00000KT 1/4SM SN OVC002 00/00 A3007 RMK AO2 T00010000
Loading
Personal Weather Stations






























Interactive Weather Map New forecast layout! Learn more

10-Day Weather Forecast

Advertisements
Track Severe Weather on mobile